Aviation Digital Data Service (ADDS)

Output produced by METARs form (2006 UTC 23 January 2019)
found at http://www.aviationweather.gov/metar/data/
 
Forecast for: WMKE (KERTEH , MY)
Text: TAF WMKE 231700Z 2318/2418 04007KT 9999 FEW015 SCT140 BKN260
Forecast period: 1800 UTC 23 January 2019 to 1800 UTC 24 January 2019
Forecast type: FROM: standard forecast or significant change
Winds: from the NE (40 degrees) at 8 MPH (7 knots; 3.6 m/s)
Visibility: 6 or more miles 10+ km)
Ceiling: 26000 feet AGL
Clouds: few clouds at 1500 feet AGL
scattered clouds at 14000 feet AGL
broken clouds at 26000 feet AGL
Weather: no significant weather forecast for this period